Map

Track Data

SID SEASON NUMBER BASIN SUBBASIN NAME ISO_TIME NATURE LAT LON WMO_WIND WMO_PRES WMO_AGENCY TRACK_TYPE DIST2LAND LANDFALL IFLAG USA_AGENCY USA_ATCF_ID USA_LAT USA_LON USA_RECORD USA_STATUS USA_WIND USA_PRES USA_SSHS USA_R34_NE USA_R34_SE USA_R34_SW USA_R34_NW USA_R50_NE USA_R50_SE USA_R50_SW USA_R50_NW USA_R64_NE USA_R64_SE USA_R64_SW USA_R64_NW USA_POCI USA_ROCI USA_RMW USA_EYE TOKYO_LAT TOKYO_LON TOKYO_GRADE TOKYO_WIND TOKYO_PRES TOKYO_R50_DIR TOKYO_R50_LONG TOKYO_R50_SHORT TOKYO_R30_DIR TOKYO_R30_LONG TOKYO_R30_SHORT TOKYO_LAND CMA_LAT CMA_LON CMA_CAT CMA_WIND CMA_PRES HKO_LAT HKO_LON HKO_CAT HKO_WIND HKO_PRES NEWDELHI_LAT NEWDELHI_LON NEWDELHI_GRADE NEWDELHI_WIND NEWDELHI_PRES NEWDELHI_CI NEWDELHI_DP NEWDELHI_POCI REUNION_LAT REUNION_LON REUNION_TYPE REUNION_WIND REUNION_PRES REUNION_TNUM REUNION_CI REUNION_RMW REUNION_R34_NE REUNION_R34_SE REUNION_R34_SW REUNION_R34_NW REUNION_R50_NE REUNION_R50_SE REUNION_R50_SW REUNION_R50_NW REUNION_R64_NE REUNION_R64_SE REUNION_R64_SW REUNION_R64_NW BOM_LAT BOM_LON BOM_TYPE BOM_WIND BOM_PRES BOM_TNUM BOM_CI BOM_RMW BOM_R34_NE BOM_R34_SE BOM_R34_SW BOM_R34_NW BOM_R50_NE BOM_R50_SE BOM_R50_SW BOM_R50_NW BOM_R64_NE BOM_R64_SE BOM_R64_SW BOM_R64_NW BOM_ROCI BOM_POCI BOM_EYE BOM_POS_METHOD BOM_PRES_METHOD NADI_LAT NADI_LON NADI_CAT NADI_WIND NADI_PRES WELLINGTON_LAT WELLINGTON_LON WELLINGTON_WIND WELLINGTON_PRES DS824_LAT DS824_LON DS824_STAGE DS824_WIND DS824_PRES TD9636_LAT TD9636_LON TD9636_STAGE TD9636_WIND TD9636_PRES TD9635_LAT TD9635_LON TD9635_WIND TD9635_PRES TD9635_ROCI NEUMANN_LAT NEUMANN_LON NEUMANN_CLASS NEUMANN_WIND NEUMANN_PRES MLC_LAT MLC_LON MLC_CLASS MLC_WIND MLC_PRES USA_GUST BOM_GUST BOM_GUST_PER REUNION_GUST REUNION_GUST_PER USA_SEAHGT USA_SEARAD_NE USA_SEARAD_SE USA_SEARAD_SW USA_SEARAD_NW STORM_SPEED STORM_DIR
1936180N23077 1936 19 NI AS NOT_NAMED 1936-06-28 00:00:00 TS 22.8000 77.3000 main 0 0 _________O____ -1 22.8000 77.3000 TC 30 6 318
1936180N23077 1936 19 NI AS NOT_NAMED 1936-06-28 03:00:00 TS 23.0068 77.0969 main 0 0 _________PO___ -1 23.1102 76.9954 TC 30 22.8000 77.3000 1 6 318
1936180N23077 1936 19 NI AS NOT_NAMED 1936-06-28 06:00:00 TS 23.2719 76.8308 main 0 0 _________OP___ -1 23.4000 76.7000 TC 30 23.0798 77.0270 1 7 316
1936180N23077 1936 19 NI AS NOT_NAMED 1936-06-28 09:00:00 TS 23.5289 76.5553 main 0 0 _________PP___ -1 23.6573 76.4147 TC 30 23.3576 76.7427 1 7 314
1936180N23077 1936 19 NI AS NOT_NAMED 1936-06-28 12:00:00 TS 23.7658 76.2686 main 0 0 _________OP___ -1 23.9000 76.1000 TC 30 23.6316 76.4372 1 8 310
1936180N23077 1936 19 NI AS NOT_NAMED 1936-06-28 15:00:00 TS 24.0325 75.9075 main 0 0 _________PO___ -1 24.1650 75.7151 TC 30 23.9000 76.1000 1 9 307
1936180N23077 1936 19 NI AS NOT_NAMED 1936-06-28 18:00:00 TS 24.2791 75.5126 main 0 0 _________OP___ -1 24.4000 75.3000 TC 30 24.1582 75.7251 1 9 302
1936180N23077 1936 19 NI AS NOT_NAMED 1936-06-28 21:00:00 TS 24.4925 75.1079 main 0 0 _________PP___ -1 24.5949 74.8926 TC 30 24.3901 75.3233 1 8 296
1936180N23077 1936 19 NI AS NOT_NAMED 1936-06-29 00:00:00 TS 24.6385 74.7048 main 0 0 _________OP___ -1 24.7000 74.5000 TC 30 24.5769 74.9097 1 7 285
1936180N23077 1936 19 NI AS NOT_NAMED 1936-06-29 03:00:00 TS 24.6862 74.3249 main 0 0 _________PO___ -1 24.6723 74.1497 TC 30 24.7000 74.5000 1 7 272
1936180N23077 1936 19 NI AS NOT_NAMED 1936-06-29 06:00:00 TS 24.6678 73.9482 main 0 0 _________OP___ -1 24.6000 73.8000 TC 30 24.7356 74.0965 1 7 267
1936180N23077 1936 19 NI AS NOT_NAMED 1936-06-29 09:00:00 TS 24.6513 73.5444 main 0 0 _________PP___ -1 24.5926 73.3851 TC 30 24.7100 73.7037 1 7 267
1936180N23077 1936 19 NI AS NOT_NAMED 1936-06-29 12:00:00 TS 24.6272 73.1671 main 0 0 _________OP___ -1 24.6000 73.0000 TC 30 24.6544 73.3342 1 6 265
1936180N23077 1936 19 NI AS NOT_NAMED 1936-06-29 15:00:00 TS 24.5999 72.8638 main 0 0 _________PO___ -1 24.5998 72.7275 TC 30 24.6000 73.0000 1 5 266
1936180N23077 1936 19 NI AS NOT_NAMED 1936-06-29 18:00:00 TS 24.5960 72.6172 main 0 0 _________OP___ -1 24.6000 72.5000 TC 30 24.5921 72.7345 1 4 269
1936180N23077 1936 19 NI AS NOT_NAMED 1936-06-29 21:00:00 TS 24.5957 72.3826 main 0 0 _________PP___ -1 24.5999 72.2650 TC 30 24.5915 72.5001 1 4 270
1936180N23077 1936 19 NI AS NOT_NAMED 1936-06-30 00:00:00 TS 24.5976 72.1328 main 0 0 _________OP___ -1 24.6000 72.0000 TC 30 24.5952 72.2657 1 5 270
1936180N23077 1936 19 NI AS NOT_NAMED 1936-06-30 03:00:00 TS 24.6000 71.8363 main 0 0 _________PO___ -1 24.6000 71.6725 TC 30 24.6000 72.0000 1 6 270
1936180N23077 1936 19 NI AS NOT_NAMED 1936-06-30 06:00:00 TS 24.6001 71.4784 main 0 0 _________OP___ -1 24.6000 71.3000 TC 30 24.6002 71.6569 1 7 270
1936180N23077 1936 19 NI AS NOT_NAMED 1936-06-30 09:00:00 TS 24.6001 71.0900 main 0 0 _________PP___ -1 24.6000 70.9000 TC 30 24.6002 71.2800 1 7 270
1936180N23077 1936 19 NI AS NOT_NAMED 1936-06-30 12:00:00 TS 24.6001 70.6941 main 0 0 _________OP___ -1 24.6000 70.5000 TC 30 24.6001 70.8881 1 7 270
1936180N23077 1936 19 NI AS NOT_NAMED 1936-06-30 15:00:00 TS 24.5999 70.3213 main 0 0 _________PO___ -1 24.5999 70.1425 TC 31 24.6000 70.5000 1 7 270
1936180N23077 1936 19 NI AS NOT_NAMED 1936-06-30 18:00:00 TS 24.5977 69.9754 main 0 0 _________OP___ -1 24.6000 69.8000 TC 32 24.5955 70.1508 1 6 270
1936180N23077 1936 19 NI AS NOT_NAMED 1936-06-30 21:00:00 TS 24.5959 69.6324 main 0 0 _________PP___ -1 24.5999 69.4575 TC 33 24.5919 69.8074 1 6 270
1936180N23077 1936 19 NI AS NOT_NAMED 1936-07-01 00:00:00 TS 24.5962 69.2801 main 0 0 _________OP___ -1 24.6000 69.1000 TC 34 24.5923 69.4602 1 7 270
1936180N23077 1936 19 NI AS NOT_NAMED 1936-07-01 03:00:00 TS 24.5962 68.9037 main 0 0 _________PO___ -1 24.5925 68.7074 TC 36 24.6000 69.1000 2 7 271
1936180N23077 1936 19 NI AS NOT_NAMED 1936-07-01 06:00:00 TS 24.6089 68.5011 main 0 0 _________OP___ -1 24.6000 68.3000 TC 39 24.6179 68.7023 2 7 274
1936180N23077 1936 19 NI AS NOT_NAMED 1936-07-01 09:00:00 TS 24.6463 68.0926 main 0 0 _________PP___ -1 24.6500 67.8926 TC 42 24.6426 68.2926 2 7 276
1936180N23077 1936 19 NI AS NOT_NAMED 1936-07-01 12:00:00 TS 24.6855 67.6933 main 0 0 _________OP___ -1 24.7000 67.5000 TC 45 24.6710 67.8866 2 7 274
1936180N23077 1936 19 NI AS NOT_NAMED 1936-07-01 15:00:00 TS 24.7000 67.3174 main 0 0 _________PO___ -1 24.6999 67.1349 TC 41 24.7000 67.5000 3 6 273
1936180N23077 1936 19 NI AS NOT_NAMED 1936-07-01 18:00:00 TS 24.7156 66.9968 main 15 11 _________OP___ -1 24.7000 66.8000 TC 37 24.7272 67.1444 3 6 275
1936180N23077 1936 19 NI AS NOT_NAMED 1936-07-01 21:00:00 TS 24.7466 66.6861 main 11 0 _________PP___ -1 24.7376 66.4926 TC 33 24.7527 66.8150 3 5 277
1936180N23077 1936 19 NI AS NOT_NAMED 1936-07-02 00:00:00 TS 24.7845 66.4021 main 30 30 _________OP___ -1 24.8000 66.2000 TC 30 24.7768 66.5032 3 4 277
1936180N23077 1936 19 NI AS NOT_NAMED 1936-07-02 03:00:00 NR 24.8000 66.2000 main 50 __________O___ -1 TC 24.8000 66.2000 1 4 275

About IBTrACS Database

This database is a web-friendly format of International Best Track Archive for Climate Stewardship (IBTrACS), a global best track data archive curated by NOAA dating back to 1842.

Updated: 2021-10-25